Time;durP1;ratioP1;P1;durP2;ratioP2;P2;SDS_P1;SDS_P2;PMS_P1;PMS_P2;Temp;Humidity;BMP_temperature;BMP_pressure;BME280_temperature;BME280_humidity;BME280_pressure;Samples;Min_cycle;Max_cycle;Signal;HPM_P1;HPM_P2
2023/08/08 00:02:28;;;;;;;5.55;2.72;;;10.20;99.90;;;;;;6011124;23;20042;-92
2023/08/08 00:05:22;;;;;;;6.80;2.85;;;10.20;99.90;;;;;;5989426;23;20083;-91
2023/08/08 00:08:10;;;;;;;5.15;2.70;;;10.30;99.90;;;;;;5989098;23;20024;-92
2023/08/08 00:10:57;;;;;;;5.80;2.95;;;10.30;99.90;;;;;;6010189;23;20055;-91
2023/08/08 00:13:54;;;;;;;6.22;2.80;;;10.30;99.90;;;;;;6132798;23;20584;-91
2023/08/08 00:16:43;;;;;;;3.03;2.60;;;10.30;99.90;;;;;;6143497;23;20041;-92
2023/08/08 00:19:35;;;;;;;3.88;2.58;;;10.40;99.90;;;;;;6131694;23;20030;-91
2023/08/08 00:22:22;;;;;;;3.70;2.60;;;10.40;99.90;;;;;;6131553;23;20076;-92
2023/08/08 00:25:30;;;;;;;5.90;3.15;;;10.40;99.90;;;;;;6136827;23;20028;-91
2023/08/08 00:28:22;;;;;;;4.20;2.65;;;10.50;99.90;;;;;;6145925;23;20061;-89
2023/08/08 00:31:09;;;;;;;2.92;2.47;;;10.60;99.90;;;;;;6174948;23;20013;-85
2023/08/08 00:34:07;;;;;;;;;;;;;;;;;;;;;
2023/08/08 00:36:58;;;;;;;4.28;2.30;;;11.00;99.90;;;;;;6151951;23;20033;-87
2023/08/08 00:39:48;;;;;;;2.40;2.20;;;11.30;1.00;;;;;;6150049;23;20048;-87
2023/08/08 00:42:38;;;;;;;6.32;2.42;;;11.50;99.90;;;;;;6150502;23;20026;-88
2023/08/08 00:45:26;;;;;;;5.50;2.00;;;11.60;99.90;;;;;;6150364;23;20026;-86
2023/08/08 00:48:13;;;;;;;4.25;2.03;;;11.60;70.80;;;;;;6130042;23;20048;-87
2023/08/08 00:51:03;;;;;;;3.00;1.90;;;11.70;99.90;;;;;;6150181;23;20031;-88
2023/08/08 00:53:50;;;;;;;2.85;2.13;;;11.70;1.00;;;;;;6130462;23;20029;-85
2023/08/08 00:56:37;;;;;;;4.68;2.42;;;11.70;99.90;;;;;;6152059;23;20033;-85
2023/08/08 00:59:25;;;;;;;3.22;2.05;;;11.70;99.90;;;;;;6149816;23;20104;-86
2023/08/08 01:02:12;;;;;;;4.80;2.20;;;11.60;99.90;;;;;;6151406;23;20316;-85
2023/08/08 01:05:00;;;;;;;3.25;2.15;;;11.60;99.90;;;;;;6151007;23;20404;-85
2023/08/08 01:08:02;;;;;;;3.28;2.20;;;11.60;1.00;;;;;;6131693;23;20032;-86
2023/08/08 01:10:50;;;;;;;2.20;2.00;;;11.60;1.00;;;;;;6150382;23;20033;-87
2023/08/08 01:13:38;;;;;;;2.20;2.00;;;11.60;1.00;;;;;;6152072;23;20033;-85
2023/08/08 01:16:26;;;;;;;5.90;2.50;;;11.60;1.00;;;;;;6127636;23;20039;-86
2023/08/08 01:19:23;;;;;;;6.03;2.53;;;11.60;75.70;;;;;;6129641;23;20063;-86
2023/08/08 01:22:42;;;;;;;2.65;2.13;;;11.50;99.90;;;;;;6149832;23;20030;-85
2023/08/08 01:25:30;;;;;;;3.13;2.13;;;11.50;99.90;;;;;;6148611;23;20018;-86
2023/08/08 01:28:24;;;;;;;2.85;2.20;;;11.50;99.90;;;;;;6151048;23;20436;-85
2023/08/08 01:31:12;;;;;;;4.32;2.22;;;11.50;1.00;;;;;;6128632;23;20025;-86
2023/08/08 01:33:59;;;;;;;3.05;2.03;;;11.50;99.90;;;;;;6149474;23;20034;-86
2023/08/08 01:36:56;;;;;;;4.00;2.28;;;11.40;99.90;;;;;;6150349;23;20053;-86
2023/08/08 01:39:46;;;;;;;5.07;2.30;;;11.40;99.90;;;;;;6129393;23;20037;-89
2023/08/08 01:42:34;;;;;;;2.63;2.03;;;11.40;1.00;;;;;;6149793;23;20037;-86
2023/08/08 01:45:21;;;;;;;4.43;2.15;;;11.40;1.00;;;;;;6151202;23;20026;-86
2023/08/08 01:48:09;;;;;;;4.60;2.30;;;11.40;1.00;;;;;;6131484;23;20114;-85
2023/08/08 01:50:57;;;;;;;2.97;1.80;;;11.40;1.00;;;;;;6151787;23;20150;-87
2023/08/08 01:53:44;;;;;;;3.95;1.90;;;11.50;1.00;;;;;;6149357;23;20026;-87
2023/08/08 01:56:32;;;;;;;4.63;2.47;;;11.40;1.00;;;;;;6150413;23;20022;-85
2023/08/08 01:59:21;;;;;;;4.97;2.30;;;11.50;99.90;;;;;;6151077;23;20037;-87
2023/08/08 02:02:15;;;;;;;7.60;2.35;;;11.40;99.90;;;;;;6150417;23;20033;-86
2023/08/08 02:05:05;;;;;;;5.65;2.15;;;11.40;99.90;;;;;;6150190;23;20021;-86
2023/08/08 02:07:53;;;;;;;4.53;2.10;;;11.30;99.90;;;;;;6150786;23;20413;-86
2023/08/08 02:10:40;;;;;;;3.72;2.10;;;11.30;1.00;;;;;;6130866;23;20328;-85
2023/08/08 02:13:27;;;;;;;5.72;2.30;;;11.30;1.00;;;;;;6129523;23;20033;-86
2023/08/08 02:16:15;;;;;;;2.95;2.22;;;11.30;99.90;;;;;;6153616;23;20029;-88
2023/08/08 02:19:02;;;;;;;3.42;2.33;;;11.30;38.80;;;;;;6153565;23;20117;-86
2023/08/08 02:21:50;;;;;;;3.35;2.38;;;11.40;1.00;;;;;;6130545;23;20332;-86
2023/08/08 02:24:37;;;;;;;3.78;2.13;;;11.50;99.90;;;;;;6152331;23;20022;-85
2023/08/08 02:27:24;;;;;;;3.67;2.03;;;11.50;99.90;;;;;;6152055;23;20033;-87
2023/08/08 02:30:12;;;;;;;3.45;2.30;;;11.60;1.00;;;;;;6129302;23;20017;-85
2023/08/08 02:32:59;;;;;;;2.20;2.00;;;11.60;99.90;;;;;;6150635;23;20101;-86
2023/08/08 02:35:47;;;;;;;3.80;1.90;;;11.60;99.90;;;;;;6151322;23;20301;-86
2023/08/08 02:38:34;;;;;;;3.55;2.17;;;11.60;25.70;;;;;;6149117;23;20441;-86
2023/08/08 02:41:21;;;;;;;2.53;2.10;;;11.60;1.00;;;;;;6130534;23;20029;-86
2023/08/08 02:44:09;;;;;;;3.30;2.22;;;11.60;1.00;;;;;;6150112;23;20371;-85
2023/08/08 02:46:56;;;;;;;3.75;2.05;;;11.60;1.00;;;;;;6152112;23;20026;-86
2023/08/08 02:49:43;;;;;;;2.78;2.20;;;11.60;1.00;;;;;;6130353;23;20113;-88
2023/08/08 02:52:30;;;;;;;3.95;1.98;;;11.60;13.20;;;;;;6150705;23;20087;-86
2023/08/08 02:55:21;;;;;;;3.75;2.08;;;11.50;99.90;;;;;;6153388;23;20100;-87
2023/08/08 02:58:10;;;;;;;2.40;2.20;;;11.50;99.90;;;;;;6152580;23;20025;-86
2023/08/08 03:00:57;;;;;;;4.80;2.22;;;11.40;99.90;;;;;;6150909;23;20397;-87
2023/08/08 03:03:50;;;;;;;3.40;2.33;;;11.40;1.00;;;;;;6151087;23;20021;-87
2023/08/08 03:06:37;;;;;;;3.90;1.73;;;11.30;1.00;;;;;;6149880;23;20329;-87
2023/08/08 03:09:24;;;;;;;5.93;2.40;;;11.40;1.00;;;;;;6128568;23;20026;-88
2023/08/08 03:12:11;;;;;;;6.82;2.40;;;11.40;1.00;;;;;;6153518;23;20025;-88
2023/08/08 03:14:59;;;;;;;3.03;2.28;;;11.40;1.00;;;;;;6151002;23;20033;-87
2023/08/08 03:17:46;;;;;;;3.08;1.98;;;11.40;1.00;;;;;;6130658;23;20135;-87
2023/08/08 03:20:34;;;;;;;4.75;2.08;;;11.50;1.00;;;;;;6152802;23;20118;-86
2023/08/08 03:23:23;;;;;;;4.05;2.20;;;11.50;1.00;;;;;;6151448;23;20056;-87
2023/08/08 03:26:11;;;;;;;3.40;2.10;;;11.50;99.90;;;;;;6132145;23;20037;-88
2023/08/08 03:28:58;;;;;;;2.55;1.95;;;11.50;99.90;;;;;;6153684;23;20022;-87
2023/08/08 03:31:46;;;;;;;6.88;2.67;;;11.50;99.90;;;;;;6150626;23;20026;-86
2023/08/08 03:34:33;;;;;;;4.15;2.22;;;11.50;99.90;;;;;;6129015;23;20136;-88
2023/08/08 03:37:21;;;;;;;5.57;1.88;;;11.50;99.90;;;;;;6131982;23;20438;-86
2023/08/08 03:40:08;;;;;;;3.10;2.05;;;11.60;99.90;;;;;;6152549;23;20021;-88
2023/08/08 03:42:58;;;;;;;4.32;2.25;;;11.70;1.00;;;;;;6151371;23;20026;-87
2023/08/08 03:45:46;;;;;;;4.75;2.28;;;11.80;99.90;;;;;;6150676;23;20022;-88
2023/08/08 03:48:33;;;;;;;3.47;2.03;;;11.90;99.90;;;;;;6130107;23;20040;-86
2023/08/08 03:51:23;;;;;;;7.03;2.10;;;11.90;62.80;;;;;;6150175;23;20026;-86
2023/08/08 03:54:10;;;;;;;3.67;1.98;;;11.90;1.00;;;;;;6131278;23;20321;-87
2023/08/08 03:57:00;;;;;;;2.35;1.70;;;11.90;1.00;;;;;;6149272;23;20022;-87
2023/08/08 03:59:58;;;;;;;4.03;2.10;;;11.90;1.00;;;;;;6152653;23;20297;-86
2023/08/08 04:03:04;;;;;;;3.10;2.00;;;11.90;1.00;;;;;;6129908;23;20021;-88
2023/08/08 04:06:40;;;;;;;5.97;2.08;;;12.00;99.90;;;;;;6130951;23;20049;-87
2023/08/08 04:09:27;;;;;;;7.68;2.40;;;12.00;99.90;;;;;;6129516;23;20314;-88
2023/08/08 04:12:14;;;;;;;5.93;2.28;;;11.90;99.90;;;;;;6151701;23;20037;-87
2023/08/08 04:15:02;;;;;;;3.42;2.15;;;11.90;99.90;;;;;;6152041;23;20116;-85
2023/08/08 04:17:50;;;;;;;4.28;1.90;;;11.80;99.90;;;;;;6132288;23;20048;-87
2023/08/08 04:20:40;;;;;;;3.20;1.95;;;11.70;1.00;;;;;;6149893;23;20029;-86
2023/08/08 04:23:27;;;;;;;3.45;2.05;;;11.60;99.30;;;;;;6149798;23;20312;-87
2023/08/08 04:26:26;;;;;;;6.15;2.50;;;11.50;99.90;;;;;;6149380;23;20029;-87
2023/08/08 04:29:14;;;;;;;6.25;3.10;;;11.40;1.00;;;;;;6151887;23;20035;-86
2023/08/08 04:32:03;;;;;;;4.07;2.50;;;11.30;99.90;;;;;;6130989;23;20373;-86
2023/08/08 04:34:50;;;;;;;6.80;2.53;;;11.20;99.90;;;;;;6150139;23;20025;-85
2023/08/08 04:37:40;;;;;;;6.65;2.50;;;11.20;99.90;;;;;;6152070;23;20025;-88
2023/08/08 04:40:27;;;;;;;5.63;2.45;;;11.30;99.90;;;;;;6130666;23;20408;-85
2023/08/08 04:47:38;;;;;;;3.60;2.53;;;11.30;99.90;;;;;;6132889;23;20123;-84
2023/08/08 04:50:28;;;;;;;4.60;2.20;;;11.30;99.90;;;;;;6122039;23;20062;-84
2023/08/08 04:55:57;;;;;;;2.45;2.20;;;11.30;92.50;;;;;;6089916;22;20074;-88
2023/08/08 04:58:47;;;;;;;3.35;2.35;;;11.30;85.90;;;;;;6146534;23;20392;-87
2023/08/08 05:01:37;;;;;;;3.88;2.65;;;11.30;68.30;;;;;;6283200;22;20031;-89
2023/08/08 05:04:27;;;;;;;4.70;2.70;;;11.40;5.20;;;;;;6141568;23;20032;-91
2023/08/08 05:07:19;;;;;;;4.90;2.47;;;11.50;20.40;;;;;;6134457;23;20026;-89
2023/08/08 05:10:16;;;;;;;4.78;2.67;;;11.40;1.00;;;;;;6152711;23;20078;-91
2023/08/08 05:13:54;;;;;;;;;;;;;;;;;;;;;
2023/08/08 05:18:08;;;;;;;3.95;2.35;;;11.50;1.00;;;;;;6117456;23;20449;-91
2023/08/08 05:21:58;;;;;;;6.97;2.50;;;11.50;99.90;;;;;;6158175;23;20077;-93
2023/08/08 05:25:17;;;;;;;6.30;2.70;;;11.50;99.90;;;;;;6201890;23;20029;-89
2023/08/08 05:32:54;;;;;;;5.13;2.55;;;11.60;99.90;;;;;;6199559;23;20104;-93
2023/08/08 05:36:23;;;;;;;2.88;2.00;;;11.70;99.90;;;;;;6194515;23;20095;-91
2023/08/08 05:39:11;;;;;;;5.22;2.28;;;11.90;1.00;;;;;;6187602;23;20029;-88
2023/08/08 05:42:31;;;;;;;6.95;2.25;;;12.00;99.90;;;;;;6189857;23;20071;-92
2023/08/08 05:49:48;;;;;;;5.13;2.22;;;12.10;1.00;;;;;;6159100;23;20401;-89
2023/08/08 05:53:19;;;;;;;;;;;;;;;;;;;;;
2023/08/08 05:56:50;;;;;;;4.57;2.00;;;12.40;1.00;;;;;;6163644;23;20026;-90
2023/08/08 06:00:45;;;;;;;;;;;;;;;;;;;;;
2023/08/08 06:04:42;;;;;;;3.90;2.08;;;12.70;93.70;;;;;;6140585;23;20025;-88
2023/08/08 06:08:43;;;;;;;3.95;1.92;;;12.90;1.00;;;;;;6020119;23;20040;-91
2023/08/08 06:11:57;;;;;;;3.35;2.03;;;13.10;99.90;;;;;;5999547;23;20038;-91
2023/08/08 06:24:27;;;;;;;;;;;;;;;;;;;;;
2023/08/08 06:32:16;;;;;;;5.47;2.45;;;13.90;99.90;;;;;;5963100;24;20020;-85
2023/08/08 06:35:16;;;;;;;1.98;1.67;;;14.20;99.90;;;;;;5984959;23;20036;-86
2023/08/08 06:38:24;;;;;;;1.73;1.60;;;14.40;1.00;;;;;;5968320;24;20044;-86
2023/08/08 06:41:16;;;;;;;4.15;1.60;;;14.60;1.00;;;;;;5983632;24;20032;-88
2023/08/08 06:44:12;;;;;;;3.78;1.73;;;14.60;1.00;;;;;;6130128;23;20124;-92
2023/08/08 06:47:06;;;;;;;3.13;1.30;;;14.60;99.90;;;;;;6131472;23;20101;-89
2023/08/08 06:49:54;;;;;;;2.13;1.50;;;14.70;99.90;;;;;;6133378;23;20032;-90
2023/08/08 06:52:45;;;;;;;4.25;1.83;;;14.80;99.90;;;;;;6129263;23;20052;-86
2023/08/08 06:56:05;;;;;;;4.05;1.50;;;15.00;99.90;;;;;;6128609;23;20053;-90
2023/08/08 06:59:42;;;;;;;;;;;;;;;;;;;;;
2023/08/08 07:07:07;;;;;;;;;;;;;;;;;;;;;
2023/08/08 07:11:03;;;;;;;4.05;1.58;;;16.10;46.10;;;;;;6091631;23;20065;-90
2023/08/08 07:14:25;;;;;;;3.67;1.60;;;16.30;1.00;;;;;;5948114;23;20115;-90
2023/08/08 07:18:11;;;;;;;3.85;1.50;;;16.50;1.00;;;;;;5958685;23;20128;-92
2023/08/08 07:21:56;;;;;;;3.53;1.70;;;16.60;1.00;;;;;;5961777;23;20110;-92
2023/08/08 07:35:38;;;;;;;5.72;1.52;;;17.30;99.90;;;;;;5946248;24;20025;-89
2023/08/08 07:39:14;;;;;;;2.25;1.10;;;17.70;99.90;;;;;;6043782;23;20022;-91
2023/08/08 07:43:03;;;;;;;;;;;17.80;99.90;;;;;;5952061;24;20032;-91
2023/08/08 07:46:13;;;;;;;;;;;;;;;;;;;;;
2023/08/08 07:49:09;;;;;;;3.22;1.48;;;18.10;99.90;;;;;;5950843;23;20036;-88
2023/08/08 07:52:01;;;;;;;4.88;1.58;;;18.20;99.90;;;;;;5963908;23;20119;-89
2023/08/08 07:54:51;;;;;;;5.55;1.58;;;17.90;99.90;;;;;;6036565;23;20032;-88
2023/08/08 07:57:55;;;;;;;;;;;;;;;;;;;;;
2023/08/08 08:00:54;;;;;;;4.15;1.48;;;17.60;99.90;;;;;;6031388;23;20106;-87
2023/08/08 08:03:42;;;;;;;5.65;1.38;;;17.80;99.90;;;;;;6013951;23;20031;-88
2023/08/08 08:06:32;;;;;;;6.18;3.10;;;17.70;99.90;;;;;;6125989;23;20121;-87
2023/08/08 08:09:22;;;;;;;2.80;1.40;;;17.60;99.90;;;;;;6131588;23;20479;-86
2023/08/08 08:12:15;;;;;;;3.95;1.40;;;17.90;99.90;;;;;;6121987;23;20032;-90
2023/08/08 08:15:05;;;;;;;;;;;18.00;99.90;;;;;;6147040;23;20029;-89
2023/08/08 08:17:56;;;;;;;4.32;1.35;;;18.00;99.90;;;;;;6166454;23;19931;-90
2023/08/08 08:20:44;;;;;;;4.03;1.50;;;18.00;99.90;;;;;;6146876;23;20026;-92
2023/08/08 08:23:32;;;;;;;2.42;1.33;;;18.40;99.90;;;;;;6165851;23;20435;-90
2023/08/08 08:26:19;;;;;;;4.28;1.30;;;18.80;99.90;;;;;;6156308;23;20045;-90
2023/08/08 08:29:07;;;;;;;4.30;1.15;;;19.10;99.90;;;;;;6132022;23;20030;-89
2023/08/08 08:31:55;;;;;;;3.00;1.52;;;19.30;99.90;;;;;;6130398;23;20032;-91
2023/08/08 08:34:44;;;;;;;6.28;1.73;;;18.90;99.90;;;;;;6130512;23;20060;-91
2023/08/08 08:37:33;;;;;;;4.05;1.40;;;19.00;99.90;;;;;;6137481;23;20094;-89
2023/08/08 08:40:25;;;;;;;2.42;1.30;;;19.40;99.90;;;;;;6138199;23;20029;-90
2023/08/08 08:43:16;;;;;;;3.03;1.48;;;19.30;99.90;;;;;;6132788;23;20387;-88
2023/08/08 08:46:08;;;;;;;2.50;1.55;;;19.50;99.90;;;;;;6156429;23;20383;-92
2023/08/08 08:48:59;;;;;;;3.38;1.42;;;19.30;99.90;;;;;;6140610;23;20048;-85
2023/08/08 08:51:47;;;;;;;3.78;1.73;;;19.90;99.90;;;;;;6162845;23;20049;-89
2023/08/08 08:54:39;;;;;;;2.80;1.42;;;20.00;99.90;;;;;;6149908;23;20061;-87
2023/08/08 08:57:28;;;;;;;3.40;1.20;;;20.00;99.90;;;;;;6148648;23;20155;-87
2023/08/08 09:00:18;;;;;;;3.80;1.60;;;20.00;99.90;;;;;;6128792;23;20029;-90
2023/08/08 09:03:12;;;;;;;5.57;1.55;;;19.80;99.90;;;;;;6149168;23;20025;-89
2023/08/08 09:09:36;;;;;;;2.50;1.38;;;20.50;99.90;;;;;;6149614;23;20029;-85
2023/08/08 09:13:46;;;;;;;;;;;;;;;;;;;;;
2023/08/08 09:17:03;;;;;;;4.47;1.50;;;19.90;99.90;;;;;;6010511;23;20175;-90
2023/08/08 09:19:56;;;;;;;2.78;1.13;;;19.70;99.90;;;;;;6121213;23;20029;-87
2023/08/08 09:22:43;;;;;;;2.00;1.10;;;20.20;99.90;;;;;;6158130;23;20420;-86
2023/08/08 09:25:35;;;;;;;2.55;1.23;;;20.10;99.90;;;;;;6134798;23;20026;-87
2023/08/08 09:28:23;;;;;;;5.00;1.23;;;20.30;99.90;;;;;;6152516;23;20034;-91
2023/08/08 09:31:22;;;;;;;;;;;;;;;;;;;;;
2023/08/08 09:34:28;;;;;;;2.22;1.30;;;21.10;99.90;;;;;;6151814;23;20025;-88
2023/08/08 09:37:44;;;;;;;2.22;1.33;;;20.10;99.90;;;;;;6151983;23;20460;-90
2023/08/08 09:41:20;;;;;;;2.83;1.05;;;19.40;99.90;;;;;;6131828;23;20428;-87
2023/08/08 09:44:40;;;;;;;2.50;1.23;;;19.70;99.90;;;;;;6143465;23;20071;-86
2023/08/08 09:47:37;;;;;;;2.00;1.27;;;20.60;99.90;;;;;;6137182;23;20037;-87
2023/08/08 09:50:35;;;;;;;2.78;1.30;;;21.00;99.90;;;;;;6150605;23;20087;-87
2023/08/08 09:53:25;;;;;;;1.60;1.10;;;21.10;99.90;;;;;;6150279;23;20125;-91
2023/08/08 09:56:16;;;;;;;4.65;1.83;;;21.60;99.90;;;;;;6127885;23;20033;-86
2023/08/08 09:59:06;;;;;;;5.72;1.60;;;21.40;99.90;;;;;;6149736;23;20029;-90
2023/08/08 10:01:57;;;;;;;3.45;1.08;;;21.20;99.90;;;;;;6153471;23;20091;-90
2023/08/08 10:04:46;;;;;;;3.38;1.33;;;21.40;99.90;;;;;;6128009;23;20324;-89
2023/08/08 10:07:35;;;;;;;3.97;1.48;;;21.10;99.90;;;;;;6150222;23;20087;-89
2023/08/08 10:10:49;;;;;;;4.75;1.25;;;20.30;99.90;;;;;;6151418;23;20110;-87
2023/08/08 10:14:03;;;;;;;3.13;1.20;;;20.30;99.90;;;;;;6135508;23;20036;-84
2023/08/08 10:16:53;;;;;;;2.28;1.10;;;21.30;99.90;;;;;;6152781;23;20037;-84
2023/08/08 10:20:21;;;;;;;2.47;1.27;;;20.80;99.90;;;;;;6132079;23;20034;-89
2023/08/08 10:28:18;;;;;;;;;;;;;;;;;;;;;
2023/08/08 10:32:25;;;;;;;2.33;1.08;;;22.70;87.20;;;;;;6108440;23;20021;-91
2023/08/08 10:39:32;;;;;;;1.67;1.05;;;21.00;64.00;;;;;;6097617;23;20033;-91
2023/08/08 10:42:25;;;;;;;2.35;1.25;;;21.60;61.90;;;;;;6130871;23;20025;-86
2023/08/08 10:45:17;;;;;;;3.00;1.20;;;22.00;62.50;;;;;;6128957;23;20033;-88
2023/08/08 10:48:11;;;;;;;2.92;0.93;;;23.20;55.60;;;;;;6128491;23;20079;-85
2023/08/08 10:52:03;;;;;;;3.17;1.33;;;24.10;42.20;;;;;;6159337;23;20089;-91
2023/08/08 10:56:01;;;;;;;;;;;;;;;;;;;;;
2023/08/08 11:02:50;;;;;;;;;;;;;;;;;;;;;
2023/08/08 11:14:29;;;;;;;3.47;1.30;;;22.70;13.10;;;;;;5899886;23;20041;-92
2023/08/08 11:20:44;;;;;;;1.40;1.05;;;23.80;5.30;;;;;;5889790;24;20017;-86
2023/08/08 11:28:01;;;;;;;2.70;1.30;;;24.00;1.00;;;;;;5903519;24;20055;-92
2023/08/08 11:31:54;;;;;;;;;;;;;;;;;;;;;
2023/08/08 11:35:49;;;;;;;;;;;;;;;;;;;;;
2023/08/08 11:39:03;;;;;;;2.28;1.27;;;22.20;1.00;;;;;;6060011;23;20053;-93
2023/08/08 12:03:56;;;;;;;2.60;1.05;;;25.50;1.00;;;;;;5130526;27;20418;-93
2023/08/08 12:07:09;;;;;;;2.53;1.02;;;23.30;1.00;;;;;;5121320;27;20546;-93
2023/08/08 12:10:31;;;;;;;1.35;0.85;;;23.20;1.00;;;;;;5098566;27;20044;-91
2023/08/08 12:14:14;;;;;;;1.48;1.00;;;25.10;1.00;;;;;;5107160;27;20051;-91
2023/08/08 12:17:12;;;;;;;3.40;1.20;;;26.50;1.00;;;;;;5121417;27;20050;-88
2023/08/08 12:20:05;;;;;;;4.38;1.08;;;24.30;1.00;;;;;;5108759;28;20112;-89
2023/08/08 12:22:54;;;;;;;4.15;1.27;;;24.60;1.00;;;;;;5117083;27;20468;-88
2023/08/08 12:25:58;;;;;;;;;;;;;;;;;;;;;
2023/08/08 12:29:16;;;;;;;3.33;1.55;;;23.90;1.00;;;;;;5112260;27;20388;-90
2023/08/08 12:35:49;;;;;;;2.33;1.25;;;23.00;1.00;;;;;;5117155;27;20032;-91
2023/08/08 12:39:02;;;;;;;1.65;1.00;;;24.10;1.00;;;;;;5124652;27;20054;-89
2023/08/08 12:41:49;;;;;;;1.85;1.17;;;24.50;1.00;;;;;;5113280;28;20348;-92
2023/08/08 12:44:42;;;;;;;3.67;1.35;;;24.10;1.00;;;;;;5112341;27;20072;-88
2023/08/08 12:47:29;;;;;;;4.13;1.40;;;23.90;1.00;;;;;;5132048;27;20070;-87
2023/08/08 12:50:21;;;;;;;3.78;1.20;;;24.40;1.00;;;;;;5131245;27;20054;-85
2023/08/08 12:53:10;;;;;;;2.20;1.15;;;24.70;1.00;;;;;;5136219;27;20035;-89
2023/08/08 12:57:13;;;;;;;2.90;1.15;;;23.80;1.00;;;;;;5088812;28;20247;-87
2023/08/08 13:00:36;;;;;;;;;;;;;;;;;;;;;
2023/08/08 13:03:40;;;;;;;3.08;1.48;;;21.70;1.00;;;;;;5002963;28;20050;-90
2023/08/08 13:06:45;;;;;;;2.25;1.10;;;21.10;1.00;;;;;;5066497;28;20072;-89
2023/08/08 13:10:32;;;;;;;;;;;;;;;;;;;;;
2023/08/08 13:34:34;;;;;;;2.75;1.40;;;23.10;1.00;;;;;;5062546;28;20302;-85
2023/08/08 13:41:24;;;;;;;2.22;1.20;;;22.90;1.00;;;;;;4982781;28;20030;-86
2023/08/08 13:45:05;;;;;;;;;;;;;;;;;;;;;
2023/08/08 13:49:04;;;;;;;1.63;1.10;;;23.10;1.00;;;;;;4976114;28;20041;-88
2023/08/08 13:56:28;;;;;;;1.90;0.80;;;26.30;1.00;;;;;;4928481;29;20532;-90
2023/08/08 13:59:43;;;;;;;2.80;1.10;;;26.60;1.00;;;;;;4975954;28;20122;-88
2023/08/08 14:02:49;;;;;;;2.00;1.38;;;25.70;1.00;;;;;;5040587;28;20143;-85
2023/08/08 14:06:34;;;;;;;3.45;1.48;;;24.50;1.00;;;;;;5048086;27;20074;-87
2023/08/08 14:10:34;;;;;;;;;;;;;;;;;;;;;
2023/08/08 14:13:34;;;;;;;3.75;1.17;;;21.80;1.00;;;;;;5049581;28;20476;-87
2023/08/08 14:17:05;;;;;;;3.22;1.63;;;21.00;1.00;;;;;;5098694;28;20033;-92
2023/08/08 14:28:31;;;;;;;2.47;1.20;;;20.60;1.00;;;;;;5052041;28;20108;-89
2023/08/08 14:31:49;;;;;;;3.85;1.40;;;21.10;1.00;;;;;;5039649;28;20469;-88
2023/08/08 14:36:05;;;;;;;2.33;1.27;;;21.60;1.00;;;;;;5037560;28;20127;-90
2023/08/08 14:43:16;;;;;;;3.88;1.42;;;21.90;1.00;;;;;;5023514;28;20037;-89
2023/08/08 14:46:08;;;;;;;2.85;1.20;;;21.80;1.00;;;;;;5045961;28;20056;-84
2023/08/08 14:53:07;;;;;;;1.45;1.20;;;21.20;1.00;;;;;;5102608;27;20024;-87
2023/08/08 14:56:36;;;;;;;3.83;1.98;;;20.60;1.00;;;;;;5098752;27;20044;-87
2023/08/08 14:59:37;;;;;;;2.50;1.70;;;20.30;1.00;;;;;;5103593;28;20376;-85
2023/08/08 15:02:24;;;;;;;2.17;1.20;;;20.30;1.00;;;;;;5100192;28;20035;-85
2023/08/08 15:05:29;;;;;;;3.20;1.20;;;20.20;1.00;;;;;;5101555;27;20411;-86
2023/08/08 15:08:24;;;;;;;2.95;1.35;;;20.30;1.00;;;;;;5098873;27;20051;-85
2023/08/08 15:11:12;;;;;;;5.75;1.70;;;20.40;1.00;;;;;;5099617;28;20230;-91
2023/08/08 15:14:14;;;;;;;2.65;1.20;;;20.60;1.00;;;;;;5108538;27;20077;-91
2023/08/08 15:17:35;;;;;;;4.97;1.40;;;20.60;1.00;;;;;;5105739;28;20089;-87
2023/08/08 15:24:42;;;;;;;2.80;1.25;;;20.70;1.00;;;;;;5067842;28;20048;-86
2023/08/08 15:27:32;;;;;;;;;;;21.80;1.00;;;;;;5055121;28;20180;-87
2023/08/08 15:30:23;;;;;;;4.10;1.40;;;22.70;1.00;;;;;;5066507;28;19935;-89
2023/08/08 15:34:15;;;;;;;4.20;1.20;;;22.00;1.00;;;;;;5062981;28;20041;-85
2023/08/08 15:37:04;;;;;;;3.42;1.25;;;20.80;1.00;;;;;;5053569;28;20044;-88
2023/08/08 15:39:51;;;;;;;3.80;1.65;;;20.20;1.00;;;;;;5066278;28;20074;-86
2023/08/08 15:43:15;;;;;;;2.92;1.35;;;20.10;1.00;;;;;;5069446;28;20064;-85
2023/08/08 15:46:15;;;;;;;4.40;1.90;;;19.90;1.00;;;;;;5038611;28;20132;-88
2023/08/08 15:49:09;;;;;;;4.80;1.60;;;19.80;1.00;;;;;;5062467;28;20045;-87
2023/08/08 15:52:18;;;;;;;;;;;19.70;1.00;;;;;;5075637;28;20044;-89
2023/08/08 15:55:11;;;;;;;2.70;1.30;;;19.50;1.00;;;;;;5069858;28;19935;-88
2023/08/08 15:57:59;;;;;;;5.07;1.40;;;19.50;1.00;;;;;;5043576;28;20132;-87
2023/08/08 16:04:20;;;;;;;5.18;1.70;;;19.70;1.00;;;;;;5097478;28;20032;-90
2023/08/08 16:07:17;;;;;;;2.65;1.30;;;19.90;1.00;;;;;;5099154;28;20051;-90
2023/08/08 16:10:18;;;;;;;3.65;1.48;;;20.10;1.00;;;;;;5104362;28;20055;-89
2023/08/08 16:13:06;;;;;;;3.17;1.50;;;20.20;1.00;;;;;;5095551;28;20376;-89
2023/08/08 16:15:56;;;;;;;5.05;1.50;;;20.40;1.00;;;;;;5096548;28;20055;-87
2023/08/08 16:18:53;;;;;;;3.25;1.23;;;20.70;1.00;;;;;;5107741;28;20035;-91
2023/08/08 16:21:41;;;;;;;3.13;1.23;;;21.60;1.00;;;;;;5100616;28;20112;-89
2023/08/08 16:24:38;;;;;;;5.07;1.35;;;22.10;1.00;;;;;;5094285;28;20082;-87
2023/08/08 16:27:28;;;;;;;1.92;1.45;;;21.70;1.00;;;;;;5100058;28;20040;-90
2023/08/08 16:30:16;;;;;;;2.60;1.40;;;21.50;1.00;;;;;;5087253;28;20036;-87
2023/08/08 16:33:17;;;;;;;2.45;1.48;;;21.20;1.00;;;;;;5104318;28;20039;-88
2023/08/08 16:36:25;;;;;;;5.78;1.20;;;20.80;1.00;;;;;;5086944;28;20032;-84
2023/08/08 16:39:13;;;;;;;3.22;1.20;;;20.60;1.00;;;;;;5074966;28;20495;-87
2023/08/08 16:42:37;;;;;;;2.75;1.40;;;20.50;1.00;;;;;;5097573;28;20071;-87
2023/08/08 16:45:37;;;;;;;2.13;1.50;;;20.20;1.00;;;;;;5069536;28;20163;-87
2023/08/08 16:49:08;;;;;;;3.00;1.58;;;19.60;1.00;;;;;;5074306;28;20127;-86
2023/08/08 16:57:02;;;;;;;4.03;1.58;;;19.10;1.00;;;;;;5090691;28;20024;-85
2023/08/08 17:00:10;;;;;;;5.43;1.52;;;18.90;1.00;;;;;;5006919;28;20049;-87
2023/08/08 17:02:57;;;;;;;4.35;1.40;;;19.00;1.00;;;;;;5067966;28;20110;-84
2023/08/08 17:05:45;;;;;;;4.75;1.40;;;19.20;1.00;;;;;;5079974;28;20054;-86
2023/08/08 17:08:41;;;;;;;3.72;1.48;;;19.40;1.00;;;;;;5104243;28;20044;-84
2023/08/08 17:11:28;;;;;;;2.03;1.55;;;19.30;1.00;;;;;;5081656;28;20047;-88
2023/08/08 17:14:16;;;;;;;3.78;1.63;;;19.30;1.00;;;;;;5114242;27;20058;-88
2023/08/08 17:17:05;;;;;;;4.15;1.60;;;19.20;1.00;;;;;;5100036;28;20152;-88
2023/08/08 17:19:52;;;;;;;5.60;1.58;;;19.00;1.00;;;;;;5106390;28;20084;-88
2023/08/08 17:22:41;;;;;;;11.60;1.63;;;19.00;1.00;;;;;;5111846;27;20048;-88
2023/08/08 17:25:29;;;;;;;2.35;1.27;;;19.00;1.00;;;;;;5115965;27;20129;-88
2023/08/08 17:28:17;;;;;;;3.08;1.50;;;18.90;2.40;;;;;;5115103;28;20055;-91
2023/08/08 17:31:05;;;;;;;2.97;1.42;;;18.80;5.20;;;;;;5105115;28;20071;-89
2023/08/08 17:33:57;;;;;;;7.63;2.25;;;18.70;6.30;;;;;;5106677;28;20062;-90
2023/08/08 17:36:51;;;;;;;2.42;1.55;;;18.60;6.80;;;;;;5116896;28;20048;-89
2023/08/08 17:39:41;;;;;;;4.13;1.55;;;18.60;8.50;;;;;;5109829;27;20039;-88
2023/08/08 17:42:31;;;;;;;4.30;1.80;;;18.60;7.10;;;;;;5134056;27;20051;-91
2023/08/08 17:45:19;;;;;;;2.80;1.55;;;18.50;7.60;;;;;;5105145;28;20050;-89
2023/08/08 17:48:09;;;;;;;3.38;1.35;;;18.50;17.10;;;;;;5113767;28;20054;-92
2023/08/08 17:50:58;;;;;;;3.67;1.30;;;18.50;5.20;;;;;;5107681;28;20131;-89
2023/08/08 17:53:47;;;;;;;3.70;1.60;;;18.50;5.60;;;;;;5101618;28;20067;-89
2023/08/08 17:56:35;;;;;;;4.93;1.85;;;18.40;7.40;;;;;;5106711;27;20512;-89
2023/08/08 17:59:23;;;;;;;3.65;1.50;;;18.40;8.60;;;;;;5116539;28;20050;-89
2023/08/08 18:02:15;;;;;;;6.85;1.70;;;18.30;11.10;;;;;;5110152;28;20116;-88
2023/08/08 18:05:05;;;;;;;5.88;1.83;;;18.20;10.60;;;;;;5113332;28;20558;-87
2023/08/08 18:07:54;;;;;;;3.28;1.50;;;18.20;13.70;;;;;;5112315;27;20043;-89
2023/08/08 18:10:45;;;;;;;3.25;1.65;;;18.10;14.60;;;;;;5118668;28;20054;-91
2023/08/08 18:13:33;;;;;;;2.97;1.60;;;18.10;16.10;;;;;;5106653;28;20477;-88
2023/08/08 18:16:25;;;;;;;5.60;1.58;;;18.10;19.20;;;;;;5115306;28;20044;-90
2023/08/08 18:19:22;;;;;;;2.55;1.60;;;18.00;32.60;;;;;;5103744;28;20144;-91
2023/08/08 18:22:10;;;;;;;3.55;1.75;;;17.90;25.80;;;;;;5109488;27;20050;-88
2023/08/08 18:24:58;;;;;;;4.43;1.73;;;17.80;27.90;;;;;;5107531;27;20590;-90
2023/08/08 18:27:48;;;;;;;2.97;1.75;;;17.70;32.40;;;;;;5109054;27;20048;-91
2023/08/08 18:30:35;;;;;;;3.00;1.70;;;17.70;36.00;;;;;;5097313;28;20040;-91
2023/08/08 18:33:26;;;;;;;4.75;1.65;;;17.70;41.20;;;;;;5130919;27;20040;-90
2023/08/08 18:36:17;;;;;;;8.27;2.17;;;17.70;47.90;;;;;;5111249;28;20044;-89
2023/08/08 18:39:06;;;;;;;3.78;2.15;;;17.60;51.30;;;;;;5120646;27;20075;-90
2023/08/08 18:41:57;;;;;;;2.17;1.55;;;17.60;54.10;;;;;;5113574;28;20039;-89
2023/08/08 18:44:50;;;;;;;4.50;1.80;;;17.60;60.50;;;;;;5107887;28;20051;-88
2023/08/08 18:47:38;;;;;;;7.15;2.55;;;17.50;65.10;;;;;;5104850;28;20056;-88
2023/08/08 18:50:26;;;;;;;3.47;1.70;;;17.50;70.20;;;;;;5109387;27;20044;-89
2023/08/08 18:53:14;;;;;;;2.95;1.67;;;17.50;77.00;;;;;;5109179;27;20047;-90